sensor_id;sensor_type;location;lat;lon;timestamp;P1;durP1;ratioP1;P2;durP2;ratioP2
46719;SDS011;32452;51.382;-0.002;2023-09-07T00:02:31;113.25;;;81.75;;
46719;SDS011;32452;51.382;-0.002;2023-09-07T00:05:25;122.63;;;87.13;;
46719;SDS011;32452;51.382;-0.002;2023-09-07T00:08:11;118.32;;;85.57;;
46719;SDS011;32452;51.382;-0.002;2023-09-07T00:11:02;121.43;;;86.20;;
46719;SDS011;32452;51.382;-0.002;2023-09-07T00:13:51;119.55;;;85.93;;
46719;SDS011;32452;51.382;-0.002;2023-09-07T00:16:37;115.47;;;82.53;;
46719;SDS011;32452;51.382;-0.002;2023-09-07T00:19:23;114.65;;;79.63;;
46719;SDS011;32452;51.382;-0.002;2023-09-07T00:22:08;107.60;;;76.93;;
46719;SDS011;32452;51.382;-0.002;2023-09-07T00:24:55;115.85;;;78.68;;
46719;SDS011;32452;51.382;-0.002;2023-09-07T00:27:41;110.32;;;77.57;;
46719;SDS011;32452;51.382;-0.002;2023-09-07T00:30:28;101.10;;;75.32;;
46719;SDS011;32452;51.382;-0.002;2023-09-07T00:33:13;109.50;;;74.93;;
46719;SDS011;32452;51.382;-0.002;2023-09-07T00:36:01;104.65;;;75.93;;
46719;SDS011;32452;51.382;-0.002;2023-09-07T00:38:47;104.15;;;75.03;;
46719;SDS011;32452;51.382;-0.002;2023-09-07T00:41:33;109.25;;;76.40;;
46719;SDS011;32452;51.382;-0.002;2023-09-07T00:44:19;102.93;;;74.78;;
46719;SDS011;32452;51.382;-0.002;2023-09-07T00:47:05;110.63;;;74.93;;
46719;SDS011;32452;51.382;-0.002;2023-09-07T00:49:51;92.03;;;64.07;;
46719;SDS011;32452;51.382;-0.002;2023-09-07T00:52:36;79.53;;;55.33;;
46719;SDS011;32452;51.382;-0.002;2023-09-07T00:55:27;67.35;;;48.33;;
46719;SDS011;32452;51.382;-0.002;2023-09-07T00:58:13;63.38;;;46.40;;
46719;SDS011;32452;51.382;-0.002;2023-09-07T01:00:59;58.38;;;43.55;;
46719;SDS011;32452;51.382;-0.002;2023-09-07T01:03:44;56.25;;;40.20;;
46719;SDS011;32452;51.382;-0.002;2023-09-07T01:06:39;56.92;;;40.78;;
46719;SDS011;32452;51.382;-0.002;2023-09-07T01:09:34;62.80;;;43.00;;
46719;SDS011;32452;51.382;-0.002;2023-09-07T01:12:21;60.88;;;43.83;;
46719;SDS011;32452;51.382;-0.002;2023-09-07T01:15:07;52.40;;;39.35;;
46719;SDS011;32452;51.382;-0.002;2023-09-07T01:17:53;61.60;;;44.00;;
46719;SDS011;32452;51.382;-0.002;2023-09-07T01:20:54;65.22;;;43.08;;
46719;SDS011;32452;51.382;-0.002;2023-09-07T01:23:44;59.97;;;40.85;;
46719;SDS011;32452;51.382;-0.002;2023-09-07T01:26:34;52.38;;;39.03;;
46719;SDS011;32452;51.382;-0.002;2023-09-07T01:29:20;59.15;;;41.45;;
46719;SDS011;32452;51.382;-0.002;2023-09-07T01:32:05;52.72;;;40.38;;
46719;SDS011;32452;51.382;-0.002;2023-09-07T01:34:52;59.00;;;40.25;;
46719;SDS011;32452;51.382;-0.002;2023-09-07T01:37:47;57.40;;;41.28;;
46719;SDS011;32452;51.382;-0.002;2023-09-07T01:40:33;56.17;;;40.78;;
46719;SDS011;32452;51.382;-0.002;2023-09-07T01:43:19;55.38;;;40.17;;
46719;SDS011;32452;51.382;-0.002;2023-09-07T01:46:05;54.13;;;39.88;;
46719;SDS011;32452;51.382;-0.002;2023-09-07T01:48:51;57.53;;;41.45;;
46719;SDS011;32452;51.382;-0.002;2023-09-07T01:51:37;52.63;;;37.58;;
46719;SDS011;32452;51.382;-0.002;2023-09-07T01:54:23;57.25;;;41.08;;
46719;SDS011;32452;51.382;-0.002;2023-09-07T01:57:09;53.72;;;37.70;;
46719;SDS011;32452;51.382;-0.002;2023-09-07T01:59:55;55.13;;;39.90;;
46719;SDS011;32452;51.382;-0.002;2023-09-07T02:02:42;60.13;;;43.35;;
46719;SDS011;32452;51.382;-0.002;2023-09-07T02:05:29;62.53;;;42.72;;
46719;SDS011;32452;51.382;-0.002;2023-09-07T02:08:14;63.65;;;43.92;;
46719;SDS011;32452;51.382;-0.002;2023-09-07T02:11:00;59.25;;;41.30;;
46719;SDS011;32452;51.382;-0.002;2023-09-07T02:13:46;62.95;;;44.10;;
46719;SDS011;32452;51.382;-0.002;2023-09-07T02:16:33;67.00;;;46.38;;
46719;SDS011;32452;51.382;-0.002;2023-09-07T02:19:19;74.57;;;48.95;;
46719;SDS011;32452;51.382;-0.002;2023-09-07T02:22:09;68.03;;;46.92;;
46719;SDS011;32452;51.382;-0.002;2023-09-07T02:24:55;74.57;;;46.95;;
46719;SDS011;32452;51.382;-0.002;2023-09-07T02:27:41;75.10;;;48.72;;
46719;SDS011;32452;51.382;-0.002;2023-09-07T02:30:27;70.18;;;47.70;;
46719;SDS011;32452;51.382;-0.002;2023-09-07T02:33:12;78.47;;;53.03;;
46719;SDS011;32452;51.382;-0.002;2023-09-07T02:35:58;77.70;;;51.30;;
46719;SDS011;32452;51.382;-0.002;2023-09-07T02:38:44;73.35;;;46.85;;
46719;SDS011;32452;51.382;-0.002;2023-09-07T02:41:31;71.82;;;49.03;;
46719;SDS011;32452;51.382;-0.002;2023-09-07T02:44:16;75.60;;;50.00;;
46719;SDS011;32452;51.382;-0.002;2023-09-07T02:47:02;76.35;;;48.15;;
46719;SDS011;32452;51.382;-0.002;2023-09-07T02:49:58;87.50;;;53.83;;
46719;SDS011;32452;51.382;-0.002;2023-09-07T02:52:43;81.28;;;51.47;;
46719;SDS011;32452;51.382;-0.002;2023-09-07T02:55:29;90.32;;;54.10;;
46719;SDS011;32452;51.382;-0.002;2023-09-07T02:58:15;88.32;;;55.65;;
46719;SDS011;32452;51.382;-0.002;2023-09-07T03:01:00;103.68;;;59.42;;
46719;SDS011;32452;51.382;-0.002;2023-09-07T03:03:51;109.35;;;65.40;;
46719;SDS011;32452;51.382;-0.002;2023-09-07T03:06:38;117.47;;;67.55;;
46719;SDS011;32452;51.382;-0.002;2023-09-07T03:09:23;115.68;;;64.97;;
46719;SDS011;32452;51.382;-0.002;2023-09-07T03:12:09;125.90;;;67.32;;
46719;SDS011;32452;51.382;-0.002;2023-09-07T03:14:55;129.23;;;66.65;;
46719;SDS011;32452;51.382;-0.002;2023-09-07T03:17:41;144.35;;;72.32;;
46719;SDS011;32452;51.382;-0.002;2023-09-07T03:20:29;132.32;;;68.03;;
46719;SDS011;32452;51.382;-0.002;2023-09-07T03:23:19;141.05;;;68.35;;
46719;SDS011;32452;51.382;-0.002;2023-09-07T03:26:05;143.82;;;70.82;;
46719;SDS011;32452;51.382;-0.002;2023-09-07T03:28:51;152.80;;;71.78;;
46719;SDS011;32452;51.382;-0.002;2023-09-07T03:31:37;161.75;;;72.68;;
46719;SDS011;32452;51.382;-0.002;2023-09-07T03:34:24;146.88;;;70.25;;
46719;SDS011;32452;51.382;-0.002;2023-09-07T03:37:11;157.82;;;73.90;;
46719;SDS011;32452;51.382;-0.002;2023-09-07T03:39:56;147.32;;;72.63;;
46719;SDS011;32452;51.382;-0.002;2023-09-07T03:42:42;150.75;;;74.35;;
46719;SDS011;32452;51.382;-0.002;2023-09-07T03:45:28;152.48;;;75.90;;
46719;SDS011;32452;51.382;-0.002;2023-09-07T03:48:15;132.45;;;69.28;;
46719;SDS011;32452;51.382;-0.002;2023-09-07T03:51:04;159.23;;;75.57;;
46719;SDS011;32452;51.382;-0.002;2023-09-07T03:53:51;140.85;;;76.40;;
46719;SDS011;32452;51.382;-0.002;2023-09-07T03:56:36;138.15;;;72.35;;
46719;SDS011;32452;51.382;-0.002;2023-09-07T03:59:24;146.20;;;73.22;;
46719;SDS011;32452;51.382;-0.002;2023-09-07T04:02:11;145.63;;;76.47;;
46719;SDS011;32452;51.382;-0.002;2023-09-07T04:04:58;132.93;;;71.90;;
46719;SDS011;32452;51.382;-0.002;2023-09-07T04:07:47;150.68;;;76.78;;
46719;SDS011;32452;51.382;-0.002;2023-09-07T04:10:38;138.63;;;73.10;;
46719;SDS011;32452;51.382;-0.002;2023-09-07T04:13:23;134.32;;;75.25;;
46719;SDS011;32452;51.382;-0.002;2023-09-07T04:16:09;143.93;;;73.03;;
46719;SDS011;32452;51.382;-0.002;2023-09-07T04:18:55;138.63;;;72.47;;
46719;SDS011;32452;51.382;-0.002;2023-09-07T04:21:40;148.57;;;73.80;;
46719;SDS011;32452;51.382;-0.002;2023-09-07T04:24:26;153.35;;;74.53;;
46719;SDS011;32452;51.382;-0.002;2023-09-07T04:27:15;149.25;;;73.28;;
46719;SDS011;32452;51.382;-0.002;2023-09-07T04:30:00;136.32;;;72.65;;
46719;SDS011;32452;51.382;-0.002;2023-09-07T04:32:46;150.73;;;76.30;;
46719;SDS011;32452;51.382;-0.002;2023-09-07T04:35:32;128.82;;;67.78;;
46719;SDS011;32452;51.382;-0.002;2023-09-07T04:38:18;144.23;;;73.30;;
46719;SDS011;32452;51.382;-0.002;2023-09-07T04:43:53;149.40;;;72.63;;
46719;SDS011;32452;51.382;-0.002;2023-09-07T04:46:39;165.60;;;77.13;;
46719;SDS011;32452;51.382;-0.002;2023-09-07T04:49:25;163.57;;;76.93;;
46719;SDS011;32452;51.382;-0.002;2023-09-07T04:52:11;175.25;;;74.88;;
46719;SDS011;32452;51.382;-0.002;2023-09-07T04:54:57;171.57;;;74.53;;
46719;SDS011;32452;51.382;-0.002;2023-09-07T04:57:42;180.75;;;77.85;;
46719;SDS011;32452;51.382;-0.002;2023-09-07T05:00:28;184.57;;;75.68;;
46719;SDS011;32452;51.382;-0.002;2023-09-07T05:03:14;188.40;;;75.80;;
46719;SDS011;32452;51.382;-0.002;2023-09-07T05:06:00;176.65;;;75.88;;
46719;SDS011;32452;51.382;-0.002;2023-09-07T05:08:48;174.70;;;76.28;;
46719;SDS011;32452;51.382;-0.002;2023-09-07T05:11:33;215.55;;;83.13;;
46719;SDS011;32452;51.382;-0.002;2023-09-07T05:14:21;182.70;;;81.47;;
46719;SDS011;32452;51.382;-0.002;2023-09-07T05:17:10;242.68;;;86.03;;
46719;SDS011;32452;51.382;-0.002;2023-09-07T05:19:55;216.85;;;86.20;;
46719;SDS011;32452;51.382;-0.002;2023-09-07T05:22:42;246.40;;;90.13;;
46719;SDS011;32452;51.382;-0.002;2023-09-07T05:25:27;225.60;;;85.20;;
46719;SDS011;32452;51.382;-0.002;2023-09-07T05:28:13;209.38;;;80.68;;
46719;SDS011;32452;51.382;-0.002;2023-09-07T05:31:00;228.02;;;85.15;;
46719;SDS011;32452;51.382;-0.002;2023-09-07T05:33:45;211.02;;;83.63;;
46719;SDS011;32452;51.382;-0.002;2023-09-07T05:36:31;225.80;;;85.15;;
46719;SDS011;32452;51.382;-0.002;2023-09-07T05:39:16;228.25;;;85.25;;
46719;SDS011;32452;51.382;-0.002;2023-09-07T05:42:02;213.80;;;83.22;;
46719;SDS011;32452;51.382;-0.002;2023-09-07T05:44:48;208.45;;;78.35;;
46719;SDS011;32452;51.382;-0.002;2023-09-07T05:47:33;227.25;;;82.40;;
46719;SDS011;32452;51.382;-0.002;2023-09-07T05:50:19;199.40;;;80.35;;
46719;SDS011;32452;51.382;-0.002;2023-09-07T05:53:05;193.27;;;81.65;;
46719;SDS011;32452;51.382;-0.002;2023-09-07T05:55:50;197.68;;;81.25;;
46719;SDS011;32452;51.382;-0.002;2023-09-07T05:58:36;240.05;;;83.88;;
46719;SDS011;32452;51.382;-0.002;2023-09-07T06:01:21;192.93;;;85.10;;
46719;SDS011;32452;51.382;-0.002;2023-09-07T06:04:07;221.88;;;84.68;;
46719;SDS011;32452;51.382;-0.002;2023-09-07T06:06:53;193.38;;;77.90;;
46719;SDS011;32452;51.382;-0.002;2023-09-07T06:09:39;211.23;;;82.57;;
46719;SDS011;32452;51.382;-0.002;2023-09-07T06:12:25;185.63;;;82.38;;
46719;SDS011;32452;51.382;-0.002;2023-09-07T06:15:11;179.82;;;79.30;;
46719;SDS011;32452;51.382;-0.002;2023-09-07T06:17:57;172.77;;;80.10;;
46719;SDS011;32452;51.382;-0.002;2023-09-07T06:20:42;173.52;;;81.15;;
46719;SDS011;32452;51.382;-0.002;2023-09-07T06:23:28;169.55;;;80.15;;
46719;SDS011;32452;51.382;-0.002;2023-09-07T06:26:14;167.23;;;80.40;;
46719;SDS011;32452;51.382;-0.002;2023-09-07T06:28:59;157.88;;;76.85;;
46719;SDS011;32452;51.382;-0.002;2023-09-07T06:31:45;166.95;;;79.65;;
46719;SDS011;32452;51.382;-0.002;2023-09-07T06:34:31;171.68;;;74.13;;
46719;SDS011;32452;51.382;-0.002;2023-09-07T06:37:16;160.35;;;79.80;;
46719;SDS011;32452;51.382;-0.002;2023-09-07T06:40:02;175.18;;;78.65;;
46719;SDS011;32452;51.382;-0.002;2023-09-07T06:42:48;161.13;;;78.40;;
46719;SDS011;32452;51.382;-0.002;2023-09-07T06:45:34;175.38;;;79.60;;
46719;SDS011;32452;51.382;-0.002;2023-09-07T06:48:20;165.40;;;80.15;;
46719;SDS011;32452;51.382;-0.002;2023-09-07T06:51:07;170.75;;;81.75;;
46719;SDS011;32452;51.382;-0.002;2023-09-07T06:53:54;148.18;;;76.07;;
46719;SDS011;32452;51.382;-0.002;2023-09-07T06:56:41;142.55;;;73.90;;
46719;SDS011;32452;51.382;-0.002;2023-09-07T06:59:27;144.95;;;75.82;;
46719;SDS011;32452;51.382;-0.002;2023-09-07T07:02:13;144.80;;;77.50;;
46719;SDS011;32452;51.382;-0.002;2023-09-07T07:04:58;136.20;;;74.72;;
46719;SDS011;32452;51.382;-0.002;2023-09-07T07:07:44;135.10;;;75.57;;
46719;SDS011;32452;51.382;-0.002;2023-09-07T07:10:30;123.38;;;73.75;;
46719;SDS011;32452;51.382;-0.002;2023-09-07T07:13:16;127.45;;;74.40;;
46719;SDS011;32452;51.382;-0.002;2023-09-07T07:16:05;117.78;;;70.30;;
46719;SDS011;32452;51.382;-0.002;2023-09-07T07:18:51;111.30;;;69.43;;
46719;SDS011;32452;51.382;-0.002;2023-09-07T07:21:36;111.22;;;69.78;;
46719;SDS011;32452;51.382;-0.002;2023-09-07T07:24:22;108.45;;;71.28;;
46719;SDS011;32452;51.382;-0.002;2023-09-07T07:27:08;93.40;;;63.65;;
46719;SDS011;32452;51.382;-0.002;2023-09-07T07:29:55;88.97;;;60.20;;
46719;SDS011;32452;51.382;-0.002;2023-09-07T07:32:41;78.72;;;57.20;;
46719;SDS011;32452;51.382;-0.002;2023-09-07T07:35:27;81.88;;;58.70;;
46719;SDS011;32452;51.382;-0.002;2023-09-07T07:38:13;73.28;;;55.35;;
46719;SDS011;32452;51.382;-0.002;2023-09-07T07:40:59;74.40;;;54.05;;
46719;SDS011;32452;51.382;-0.002;2023-09-07T07:43:45;70.93;;;52.83;;
46719;SDS011;32452;51.382;-0.002;2023-09-07T07:46:31;61.63;;;47.75;;
46719;SDS011;32452;51.382;-0.002;2023-09-07T07:49:17;58.83;;;47.08;;
46719;SDS011;32452;51.382;-0.002;2023-09-07T07:52:02;64.80;;;47.88;;
46719;SDS011;32452;51.382;-0.002;2023-09-07T07:54:48;54.95;;;46.05;;
46719;SDS011;32452;51.382;-0.002;2023-09-07T07:57:34;55.17;;;45.38;;
46719;SDS011;32452;51.382;-0.002;2023-09-07T08:00:19;56.05;;;44.88;;
46719;SDS011;32452;51.382;-0.002;2023-09-07T08:03:05;59.38;;;46.95;;
46719;SDS011;32452;51.382;-0.002;2023-09-07T08:05:52;56.38;;;45.75;;
46719;SDS011;32452;51.382;-0.002;2023-09-07T08:08:39;63.35;;;45.30;;
46719;SDS011;32452;51.382;-0.002;2023-09-07T08:11:25;51.55;;;44.83;;
46719;SDS011;32452;51.382;-0.002;2023-09-07T08:14:12;49.83;;;41.78;;
46719;SDS011;32452;51.382;-0.002;2023-09-07T08:16:58;46.08;;;40.47;;
46719;SDS011;32452;51.382;-0.002;2023-09-07T08:19:44;50.28;;;42.85;;
46719;SDS011;32452;51.382;-0.002;2023-09-07T08:22:32;47.95;;;41.80;;
46719;SDS011;32452;51.382;-0.002;2023-09-07T08:25:21;45.42;;;40.30;;
46719;SDS011;32452;51.382;-0.002;2023-09-07T08:28:08;47.40;;;41.78;;
46719;SDS011;32452;51.382;-0.002;2023-09-07T08:30:55;45.92;;;38.97;;
46719;SDS011;32452;51.382;-0.002;2023-09-07T08:33:44;45.55;;;39.25;;
46719;SDS011;32452;51.382;-0.002;2023-09-07T08:36:30;47.90;;;41.05;;
46719;SDS011;32452;51.382;-0.002;2023-09-07T08:39:20;47.63;;;40.63;;
46719;SDS011;32452;51.382;-0.002;2023-09-07T08:42:08;44.00;;;37.58;;
46719;SDS011;32452;51.382;-0.002;2023-09-07T08:44:55;42.60;;;36.35;;
46719;SDS011;32452;51.382;-0.002;2023-09-07T08:47:45;44.08;;;37.33;;
46719;SDS011;32452;51.382;-0.002;2023-09-07T08:50:32;42.20;;;36.30;;
46719;SDS011;32452;51.382;-0.002;2023-09-07T08:53:19;46.95;;;37.97;;
46719;SDS011;32452;51.382;-0.002;2023-09-07T08:56:08;44.25;;;37.78;;
46719;SDS011;32452;51.382;-0.002;2023-09-07T08:58:57;44.53;;;37.58;;
46719;SDS011;32452;51.382;-0.002;2023-09-07T09:01:43;42.53;;;37.38;;
46719;SDS011;32452;51.382;-0.002;2023-09-07T09:04:30;40.83;;;36.15;;
46719;SDS011;32452;51.382;-0.002;2023-09-07T09:07:18;39.17;;;33.75;;
46719;SDS011;32452;51.382;-0.002;2023-09-07T09:10:07;42.38;;;36.00;;
46719;SDS011;32452;51.382;-0.002;2023-09-07T09:12:53;44.97;;;35.47;;
46719;SDS011;32452;51.382;-0.002;2023-09-07T09:15:39;38.72;;;32.65;;
46719;SDS011;32452;51.382;-0.002;2023-09-07T09:18:24;41.33;;;34.10;;
46719;SDS011;32452;51.382;-0.002;2023-09-07T09:21:13;35.90;;;31.00;;
46719;SDS011;32452;51.382;-0.002;2023-09-07T09:23:59;56.60;;;36.67;;
46719;SDS011;32452;51.382;-0.002;2023-09-07T09:26:45;35.72;;;31.92;;
46719;SDS011;32452;51.382;-0.002;2023-09-07T09:29:32;35.45;;;30.45;;
46719;SDS011;32452;51.382;-0.002;2023-09-07T09:32:19;36.55;;;31.20;;
46719;SDS011;32452;51.382;-0.002;2023-09-07T09:35:05;31.88;;;26.95;;
46719;SDS011;32452;51.382;-0.002;2023-09-07T09:37:51;34.78;;;30.30;;
46719;SDS011;32452;51.382;-0.002;2023-09-07T09:40:36;32.40;;;28.77;;
46719;SDS011;32452;51.382;-0.002;2023-09-07T09:43:24;35.97;;;28.73;;
46719;SDS011;32452;51.382;-0.002;2023-09-07T09:46:11;32.67;;;27.15;;
46719;SDS011;32452;51.382;-0.002;2023-09-07T09:48:58;30.90;;;25.83;;
46719;SDS011;32452;51.382;-0.002;2023-09-07T09:51:45;31.38;;;25.13;;
46719;SDS011;32452;51.382;-0.002;2023-09-07T09:54:35;27.08;;;21.83;;
46719;SDS011;32452;51.382;-0.002;2023-09-07T09:57:21;24.95;;;21.20;;
46719;SDS011;32452;51.382;-0.002;2023-09-07T10:00:07;26.58;;;21.13;;
46719;SDS011;32452;51.382;-0.002;2023-09-07T10:06:12;23.95;;;20.40;;
46719;SDS011;32452;51.382;-0.002;2023-09-07T10:09:04;24.48;;;18.98;;
46719;SDS011;32452;51.382;-0.002;2023-09-07T10:11:53;26.90;;;21.52;;
46719;SDS011;32452;51.382;-0.002;2023-09-07T10:14:40;22.42;;;19.70;;
46719;SDS011;32452;51.382;-0.002;2023-09-07T10:17:26;23.95;;;19.90;;
46719;SDS011;32452;51.382;-0.002;2023-09-07T10:20:11;23.77;;;19.20;;
46719;SDS011;32452;51.382;-0.002;2023-09-07T10:23:04;27.00;;;18.38;;
46719;SDS011;32452;51.382;-0.002;2023-09-07T10:25:51;24.55;;;19.38;;
46719;SDS011;32452;51.382;-0.002;2023-09-07T10:28:38;21.52;;;17.23;;
46719;SDS011;32452;51.382;-0.002;2023-09-07T10:31:24;24.42;;;19.77;;
46719;SDS011;32452;51.382;-0.002;2023-09-07T10:34:34;23.52;;;18.98;;
46719;SDS011;32452;51.382;-0.002;2023-09-07T10:37:27;27.55;;;20.17;;
46719;SDS011;32452;51.382;-0.002;2023-09-07T10:40:20;16.88;;;13.00;;
46719;SDS011;32452;51.382;-0.002;2023-09-07T10:43:07;18.63;;;15.68;;
46719;SDS011;32452;51.382;-0.002;2023-09-07T10:45:54;19.88;;;14.02;;
46719;SDS011;32452;51.382;-0.002;2023-09-07T10:48:41;19.52;;;14.90;;
46719;SDS011;32452;51.382;-0.002;2023-09-07T10:51:27;19.02;;;14.60;;
46719;SDS011;32452;51.382;-0.002;2023-09-07T10:54:18;21.27;;;14.50;;
46719;SDS011;32452;51.382;-0.002;2023-09-07T10:57:08;22.65;;;15.50;;
46719;SDS011;32452;51.382;-0.002;2023-09-07T11:00:03;20.35;;;13.00;;
46719;SDS011;32452;51.382;-0.002;2023-09-07T11:02:49;21.92;;;13.65;;
46719;SDS011;32452;51.382;-0.002;2023-09-07T11:05:35;16.77;;;12.43;;
46719;SDS011;32452;51.382;-0.002;2023-09-07T11:08:22;18.58;;;14.75;;
46719;SDS011;32452;51.382;-0.002;2023-09-07T11:11:08;20.10;;;12.90;;
46719;SDS011;32452;51.382;-0.002;2023-09-07T11:13:56;17.50;;;12.23;;
46719;SDS011;32452;51.382;-0.002;2023-09-07T11:16:42;17.58;;;13.75;;
46719;SDS011;32452;51.382;-0.002;2023-09-07T11:19:31;14.73;;;11.27;;
46719;SDS011;32452;51.382;-0.002;2023-09-07T11:22:17;13.85;;;10.02;;
46719;SDS011;32452;51.382;-0.002;2023-09-07T11:25:04;14.98;;;11.45;;
46719;SDS011;32452;51.382;-0.002;2023-09-07T11:27:51;15.20;;;11.77;;
46719;SDS011;32452;51.382;-0.002;2023-09-07T11:30:52;15.60;;;10.48;;
46719;SDS011;32452;51.382;-0.002;2023-09-07T11:33:40;15.00;;;9.05;;
46719;SDS011;32452;51.382;-0.002;2023-09-07T11:36:26;15.13;;;10.88;;
46719;SDS011;32452;51.382;-0.002;2023-09-07T11:39:12;16.98;;;11.50;;
46719;SDS011;32452;51.382;-0.002;2023-09-07T11:41:58;15.15;;;8.55;;
46719;SDS011;32452;51.382;-0.002;2023-09-07T11:44:44;15.05;;;10.48;;
46719;SDS011;32452;51.382;-0.002;2023-09-07T11:47:29;18.27;;;10.40;;
46719;SDS011;32452;51.382;-0.002;2023-09-07T11:50:18;13.02;;;9.82;;
46719;SDS011;32452;51.382;-0.002;2023-09-07T11:53:06;17.92;;;10.60;;
46719;SDS011;32452;51.382;-0.002;2023-09-07T11:55:53;14.05;;;9.15;;
46719;SDS011;32452;51.382;-0.002;2023-09-07T11:58:40;13.65;;;9.30;;
46719;SDS011;32452;51.382;-0.002;2023-09-07T12:01:26;16.20;;;7.93;;
46719;SDS011;32452;51.382;-0.002;2023-09-07T12:04:13;9.35;;;6.07;;
46719;SDS011;32452;51.382;-0.002;2023-09-07T12:06:59;15.40;;;10.13;;
46719;SDS011;32452;51.382;-0.002;2023-09-07T12:09:46;12.63;;;7.78;;
46719;SDS011;32452;51.382;-0.002;2023-09-07T12:12:31;12.00;;;7.10;;
46719;SDS011;32452;51.382;-0.002;2023-09-07T12:15:17;10.48;;;6.10;;
46719;SDS011;32452;51.382;-0.002;2023-09-07T12:18:04;16.05;;;5.68;;
46719;SDS011;32452;51.382;-0.002;2023-09-07T12:20:50;7.57;;;5.20;;
46719;SDS011;32452;51.382;-0.002;2023-09-07T12:23:35;13.00;;;6.47;;
46719;SDS011;32452;51.382;-0.002;2023-09-07T12:26:21;11.60;;;5.95;;
46719;SDS011;32452;51.382;-0.002;2023-09-07T12:29:07;11.05;;;4.93;;
46719;SDS011;32452;51.382;-0.002;2023-09-07T12:31:52;9.63;;;5.22;;
46719;SDS011;32452;51.382;-0.002;2023-09-07T12:34:38;7.68;;;5.38;;
46719;SDS011;32452;51.382;-0.002;2023-09-07T12:37:24;10.38;;;4.78;;
46719;SDS011;32452;51.382;-0.002;2023-09-07T12:40:11;9.63;;;4.50;;
46719;SDS011;32452;51.382;-0.002;2023-09-07T12:42:59;9.80;;;4.50;;
46719;SDS011;32452;51.382;-0.002;2023-09-07T12:45:45;5.40;;;4.05;;
46719;SDS011;32452;51.382;-0.002;2023-09-07T12:48:32;8.13;;;4.50;;
46719;SDS011;32452;51.382;-0.002;2023-09-07T12:51:18;7.03;;;4.65;;
46719;SDS011;32452;51.382;-0.002;2023-09-07T12:54:05;11.10;;;5.43;;
46719;SDS011;32452;51.382;-0.002;2023-09-07T12:56:52;8.48;;;4.35;;
46719;SDS011;32452;51.382;-0.002;2023-09-07T12:59:39;10.70;;;4.45;;
46719;SDS011;32452;51.382;-0.002;2023-09-07T13:02:25;9.63;;;4.63;;
46719;SDS011;32452;51.382;-0.002;2023-09-07T13:05:13;8.48;;;4.47;;
46719;SDS011;32452;51.382;-0.002;2023-09-07T13:07:59;7.03;;;3.63;;
46719;SDS011;32452;51.382;-0.002;2023-09-07T13:10:47;9.95;;;3.90;;
46719;SDS011;32452;51.382;-0.002;2023-09-07T13:13:33;11.15;;;5.18;;
46719;SDS011;32452;51.382;-0.002;2023-09-07T13:16:19;4.97;;;3.85;;
46719;SDS011;32452;51.382;-0.002;2023-09-07T13:19:05;8.60;;;4.57;;
46719;SDS011;32452;51.382;-0.002;2023-09-07T13:21:51;10.20;;;4.85;;
46719;SDS011;32452;51.382;-0.002;2023-09-07T13:24:37;6.85;;;4.28;;
46719;SDS011;32452;51.382;-0.002;2023-09-07T13:27:22;8.00;;;4.88;;
46719;SDS011;32452;51.382;-0.002;2023-09-07T13:30:10;10.43;;;4.68;;
46719;SDS011;32452;51.382;-0.002;2023-09-07T13:32:59;10.80;;;4.60;;
46719;SDS011;32452;51.382;-0.002;2023-09-07T13:35:45;8.48;;;4.85;;
46719;SDS011;32452;51.382;-0.002;2023-09-07T13:38:31;6.90;;;4.10;;
46719;SDS011;32452;51.382;-0.002;2023-09-07T13:41:17;6.47;;;4.28;;
46719;SDS011;32452;51.382;-0.002;2023-09-07T13:44:03;7.10;;;3.83;;
46719;SDS011;32452;51.382;-0.002;2023-09-07T13:46:48;8.73;;;4.35;;
46719;SDS011;32452;51.382;-0.002;2023-09-07T13:49:34;5.22;;;3.70;;
46719;SDS011;32452;51.382;-0.002;2023-09-07T13:52:20;6.47;;;3.85;;
46719;SDS011;32452;51.382;-0.002;2023-09-07T13:55:06;7.13;;;4.15;;
46719;SDS011;32452;51.382;-0.002;2023-09-07T13:57:51;10.40;;;5.13;;
46719;SDS011;32452;51.382;-0.002;2023-09-07T14:00:37;6.43;;;4.43;;
46719;SDS011;32452;51.382;-0.002;2023-09-07T14:03:23;7.53;;;4.30;;
46719;SDS011;32452;51.382;-0.002;2023-09-07T14:06:09;7.75;;;4.10;;
46719;SDS011;32452;51.382;-0.002;2023-09-07T14:08:54;8.18;;;4.68;;
46719;SDS011;32452;51.382;-0.002;2023-09-07T14:11:40;9.18;;;4.60;;
46719;SDS011;32452;51.382;-0.002;2023-09-07T14:14:25;8.75;;;4.80;;
46719;SDS011;32452;51.382;-0.002;2023-09-07T14:17:11;7.80;;;4.07;;
46719;SDS011;32452;51.382;-0.002;2023-09-07T14:19:57;7.35;;;3.95;;
46719;SDS011;32452;51.382;-0.002;2023-09-07T14:22:42;8.70;;;4.35;;
46719;SDS011;32452;51.382;-0.002;2023-09-07T14:25:29;8.18;;;3.70;;
46719;SDS011;32452;51.382;-0.002;2023-09-07T14:28:16;6.13;;;4.00;;
46719;SDS011;32452;51.382;-0.002;2023-09-07T14:31:02;6.88;;;4.22;;
46719;SDS011;32452;51.382;-0.002;2023-09-07T14:33:53;11.05;;;4.70;;
46719;SDS011;32452;51.382;-0.002;2023-09-07T14:36:39;9.45;;;4.03;;
46719;SDS011;32452;51.382;-0.002;2023-09-07T14:39:25;7.80;;;4.00;;
46719;SDS011;32452;51.382;-0.002;2023-09-07T14:42:11;8.90;;;4.57;;
46719;SDS011;32452;51.382;-0.002;2023-09-07T14:45:01;8.90;;;4.28;;
46719;SDS011;32452;51.382;-0.002;2023-09-07T14:47:46;6.28;;;3.95;;
46719;SDS011;32452;51.382;-0.002;2023-09-07T14:50:33;6.72;;;3.90;;
46719;SDS011;32452;51.382;-0.002;2023-09-07T14:53:19;8.90;;;3.85;;
46719;SDS011;32452;51.382;-0.002;2023-09-07T14:56:05;6.90;;;4.53;;
46719;SDS011;32452;51.382;-0.002;2023-09-07T14:58:51;7.07;;;3.90;;
46719;SDS011;32452;51.382;-0.002;2023-09-07T15:01:36;7.15;;;3.92;;
46719;SDS011;32452;51.382;-0.002;2023-09-07T15:04:22;7.78;;;4.18;;
46719;SDS011;32452;51.382;-0.002;2023-09-07T15:07:08;7.95;;;4.07;;
46719;SDS011;32452;51.382;-0.002;2023-09-07T15:09:54;10.48;;;4.38;;
46719;SDS011;32452;51.382;-0.002;2023-09-07T15:12:39;6.65;;;3.92;;
46719;SDS011;32452;51.382;-0.002;2023-09-07T15:15:25;7.90;;;4.10;;
46719;SDS011;32452;51.382;-0.002;2023-09-07T15:18:11;7.43;;;4.05;;
46719;SDS011;32452;51.382;-0.002;2023-09-07T15:20:57;7.55;;;3.30;;
46719;SDS011;32452;51.382;-0.002;2023-09-07T15:23:42;6.75;;;3.85;;
46719;SDS011;32452;51.382;-0.002;2023-09-07T15:26:28;6.30;;;4.22;;
46719;SDS011;32452;51.382;-0.002;2023-09-07T15:29:24;5.68;;;3.63;;
46719;SDS011;32452;51.382;-0.002;2023-09-07T15:32:11;6.22;;;3.42;;
46719;SDS011;32452;51.382;-0.002;2023-09-07T15:34:57;5.72;;;3.50;;
46719;SDS011;32452;51.382;-0.002;2023-09-07T15:37:42;7.13;;;4.15;;
46719;SDS011;32452;51.382;-0.002;2023-09-07T15:40:30;5.70;;;3.83;;
46719;SDS011;32452;51.382;-0.002;2023-09-07T15:43:16;10.00;;;4.03;;
46719;SDS011;32452;51.382;-0.002;2023-09-07T15:46:01;7.13;;;4.40;;
46719;SDS011;32452;51.382;-0.002;2023-09-07T15:48:47;7.97;;;4.10;;
46719;SDS011;32452;51.382;-0.002;2023-09-07T15:51:33;8.73;;;3.97;;
46719;SDS011;32452;51.382;-0.002;2023-09-07T15:54:19;6.70;;;3.78;;
46719;SDS011;32452;51.382;-0.002;2023-09-07T15:57:05;6.55;;;3.95;;
46719;SDS011;32452;51.382;-0.002;2023-09-07T15:59:50;7.32;;;3.67;;
46719;SDS011;32452;51.382;-0.002;2023-09-07T16:02:36;7.05;;;3.97;;
46719;SDS011;32452;51.382;-0.002;2023-09-07T16:05:21;9.20;;;4.38;;
46719;SDS011;32452;51.382;-0.002;2023-09-07T16:08:10;8.60;;;4.22;;
46719;SDS011;32452;51.382;-0.002;2023-09-07T16:10:57;6.35;;;4.13;;